Decoded Metar for LDPL (PULA in CROATIA) (IATA:PUY) | Meteo·Mobile Aviation Weather
aviador You're here:

LDPL Decoded Metar

PULA in CROATIA
Report Time2018-11-18 02:00:00
UTC Time2018-11-18 02:22:04
Flight Rules vfr VFR
Wind050° at 09 kt
W.Decomp.*RWY 09: 6.6 kt HW 6.1 kt LCW
W.Rank050° ranks 4
Current wind is above 050° avg. (8.3)
Visibility9999 m
Phenomena:N/A
Clouds:N/A
Expected CloudBase > 2,800 ft AGL from Temp-Dew spread
CeilingNone
Temp06°C (ISA -9)
Dew Point-1°C (61% RH)
AAT0.6°C
QNH1022 hPa
Density Alt-1,053 ft
Elevation207 ft
Report Wrong Elevation
Raw Report
LDPL 180200Z 05009KT CAVOK 06/M01 Q1022=

Extra information for LDPL:More info

Metar Taf Metar & Taf Last 4 Metars F.Rules Stats Wind Profile Meteogram Temp Stats Airport Information Weather charts Add Link Nearby VenuesMetar ALERT Operation Metar Decoded Social comments